createdAt,value
2019-05-12T00:01:38.903Z,102937.30
2019-05-12T00:04:08.387Z,102931.04
2019-05-12T00:06:38.728Z,102932.95
2019-05-12T00:09:08.469Z,102939.72
2019-05-12T00:11:38.021Z,102940.03
2019-05-12T00:14:08.649Z,102939.81
2019-05-12T00:16:38.575Z,102937.14
2019-05-12T00:19:09.273Z,102938.17
2019-05-12T00:21:39.913Z,102933.88
2019-05-12T00:24:11.301Z,102934.36
2019-05-12T00:26:42.300Z,102932.88
2019-05-12T00:29:11.450Z,102933.98
2019-05-12T00:31:40.633Z,102938.53
2019-05-12T00:34:09.866Z,102939.20
2019-05-12T00:36:38.989Z,102947.78
2019-05-12T00:39:08.856Z,102945.23
2019-05-12T00:41:39.028Z,102951.87
2019-05-12T00:44:08.961Z,102954.14
2019-05-12T00:46:38.666Z,102952.49
2019-05-12T00:49:08.373Z,102954.59
2019-05-12T00:51:38.448Z,102958.06
2019-05-12T00:54:09.179Z,102958.84
2019-05-12T00:56:39.316Z,102960.20
2019-05-12T00:59:08.704Z,102964.68
2019-05-12T01:01:38.233Z,102963.39
2019-05-12T01:04:08.923Z,102967.80
2019-05-12T01:06:38.687Z,102971.38
2019-05-12T01:09:08.812Z,102976.53
2019-05-12T01:11:38.210Z,102982.63
2019-05-12T01:14:08.587Z,102983.78
2019-05-12T01:16:38.573Z,102984.72
2019-05-12T01:19:08.221Z,102986.91
2019-05-12T01:21:37.856Z,102988.14
2019-05-12T01:24:08.807Z,102992.83
2019-05-12T01:26:38.912Z,102993.20
2019-05-12T01:29:08.568Z,102995.97
2019-05-12T01:31:39.483Z,102995.53
2019-05-12T01:34:08.676Z,102999.17
2019-05-12T01:36:38.188Z,103006.07
2019-05-12T01:39:08.243Z,103010.08
2019-05-12T01:41:39.035Z,103013.69
2019-05-12T01:44:08.884Z,103009.53
2019-05-12T01:46:38.491Z,103017.44
2019-05-12T01:49:08.401Z,103022.75
2019-05-12T01:51:38.480Z,103026.41
2019-05-12T01:54:14.392Z,103033.41
2019-05-12T01:56:38.785Z,103036.61
2019-05-12T01:59:08.232Z,103038.30
2019-05-12T02:01:38.829Z,103038.98
2019-05-12T02:04:08.238Z,103037.66
2019-05-12T02:06:38.653Z,103046.47
2019-05-12T02:09:09.682Z,103055.08
2019-05-12T02:11:38.880Z,103054.64
2019-05-12T02:14:09.319Z,103065.20
2019-05-12T02:16:38.673Z,103067.46
2019-05-12T02:19:09.006Z,103067.47
2019-05-12T02:21:38.574Z,103073.38
2019-05-12T02:24:12.201Z,103076.58
2019-05-12T02:26:38.924Z,103080.59
2019-05-12T02:29:08.205Z,103082.08
2019-05-12T02:31:39.715Z,103086.37
2019-05-12T02:34:08.359Z,103087.91
2019-05-12T02:36:37.597Z,103092.69
2019-05-12T02:39:08.319Z,103097.52
2019-05-12T02:41:37.478Z,103099.95
2019-05-12T02:44:06.707Z,103104.94
2019-05-12T02:46:35.954Z,103103.42
2019-05-12T02:49:05.302Z,103108.52
2019-05-12T02:51:35.317Z,103111.78
2019-05-12T02:54:06.017Z,103113.40
2019-05-12T02:56:35.809Z,103117.09
2019-05-12T02:59:05.673Z,103120.86
2019-05-12T03:01:35.537Z,103129.70
2019-05-12T03:04:05.950Z,103128.23
2019-05-12T03:06:36.074Z,103133.45
2019-05-12T03:09:07.654Z,103135.19
2019-05-12T03:11:37.760Z,103141.28
2019-05-12T03:14:06.964Z,103146.46
2019-05-12T03:16:36.169Z,103147.59
2019-05-12T03:19:05.557Z,103149.19
2019-05-12T03:21:35.353Z,103153.45
2019-05-12T03:24:06.369Z,103153.50
2019-05-12T03:26:35.942Z,103155.18
2019-05-12T03:29:06.231Z,103158.77
2019-05-12T03:31:40.357Z,103165.80
2019-05-12T03:34:09.302Z,103172.97
2019-05-12T03:36:41.605Z,103175.86
2019-05-12T03:39:09.690Z,103177.55
2019-05-12T03:41:38.223Z,103183.22
2019-05-12T03:44:07.362Z,103189.05
2019-05-12T03:46:36.543Z,103191.09
2019-05-12T03:49:05.912Z,103197.27
2019-05-12T03:51:35.408Z,103196.47
2019-05-12T03:54:05.409Z,103206.83
2019-05-12T03:56:35.127Z,103204.95
2019-05-12T03:59:05.371Z,103210.39
2019-05-12T04:01:36.317Z,103214.03
2019-05-12T04:04:05.919Z,103212.26
2019-05-12T04:06:35.268Z,103217.85
2019-05-12T04:09:08.120Z,103224.73
2019-05-12T04:11:37.811Z,103225.02
2019-05-12T04:14:07.051Z,103229.95
2019-05-12T04:16:36.803Z,103235.17
2019-05-12T04:19:06.199Z,103238.58
2019-05-12T04:21:35.723Z,103244.89
2019-05-12T04:24:06.027Z,103244.52
2019-05-12T04:26:36.601Z,103249.84
2019-05-12T04:29:05.563Z,103256.70
2019-05-12T04:31:36.778Z,103259.22
2019-05-12T04:34:06.010Z,103256.38
2019-05-12T04:36:35.877Z,103258.17
2019-05-12T04:39:06.771Z,103261.88
2019-05-12T04:41:36.449Z,103257.34
2019-05-12T04:44:06.182Z,103263.50
2019-05-12T04:46:35.592Z,103280.14
2019-05-12T04:49:05.428Z,103282.56
2019-05-12T04:51:35.383Z,103284.75
2019-05-12T04:54:05.651Z,103289.66
2019-05-12T04:56:36.168Z,103291.48
2019-05-12T04:59:05.712Z,103293.63
2019-05-12T05:01:35.274Z,103290.84
2019-05-12T05:04:05.749Z,103287.58
2019-05-12T05:06:34.996Z,103286.91
2019-05-12T05:09:07.097Z,103287.31
2019-05-12T05:11:36.349Z,103295.02
2019-05-12T05:14:06.090Z,103302.65
2019-05-12T05:16:35.245Z,103309.42
2019-05-12T05:19:04.424Z,103316.13
2019-05-12T05:21:34.473Z,103316.20
2019-05-12T05:24:04.105Z,103323.18
2019-05-12T05:26:37.001Z,103326.69
2019-05-12T05:29:04.576Z,103330.30
2019-05-12T05:31:33.982Z,103331.20
2019-05-12T05:34:04.695Z,103336.30
2019-05-12T05:36:34.752Z,103335.23
2019-05-12T05:39:06.479Z,103342.53
2019-05-12T05:41:40.172Z,103343.12
2019-05-12T05:44:06.683Z,103341.89
2019-05-12T05:46:39.102Z,103349.48
2019-05-12T05:49:06.729Z,103349.48
2019-05-12T05:51:39.517Z,103349.81
2019-05-12T05:54:06.807Z,103351.89
2019-05-12T05:56:42.399Z,103352.20
2019-05-12T05:59:06.850Z,103358.44
2019-05-12T06:01:40.218Z,103355.98
2019-05-12T06:04:08.595Z,103365.58
2019-05-12T06:06:44.367Z,103364.30
2019-05-12T06:09:09.010Z,103377.03
2019-05-12T06:11:38.169Z,103378.28
2019-05-12T06:14:11.298Z,103379.25
2019-05-12T06:16:38.341Z,103380.21
2019-05-12T06:19:07.532Z,103385.32
2019-05-12T06:21:38.345Z,103382.34
2019-05-12T06:24:08.901Z,103380.69
2019-05-12T06:26:53.668Z,103383.40
2019-05-12T06:29:11.349Z,103382.91
2019-05-12T06:31:44.206Z,103383.01
2019-05-12T06:34:18.773Z,103386.66
2019-05-12T06:36:44.162Z,103392.06
2019-05-12T06:39:18.637Z,103389.43
2019-05-12T06:41:44.436Z,103399.42
2019-05-12T06:44:17.805Z,103397.08
2019-05-12T06:46:44.631Z,103400.18
2019-05-12T06:49:17.413Z,103402.62
2019-05-12T06:51:44.737Z,103407.89
2019-05-12T06:54:15.142Z,103412.90
2019-05-12T06:56:43.811Z,103418.50
2019-05-12T06:59:14.758Z,103422.16
2019-05-12T07:01:45.022Z,103418.44
2019-05-12T07:04:14.188Z,103425.40
2019-05-12T07:06:44.267Z,103437.54
2019-05-12T07:09:16.242Z,103433.02
2019-05-12T07:11:52.988Z,103441.95
2019-05-12T07:14:22.315Z,103437.91
2019-05-12T07:16:55.164Z,103429.73
2019-05-12T07:19:22.651Z,103435.41
2019-05-12T07:21:50.807Z,103439.63
2019-05-12T07:24:20.964Z,103438.73
2019-05-12T07:26:56.328Z,103440.34
2019-05-12T07:29:21.102Z,103437.68
2019-05-12T07:31:50.324Z,103444.45
2019-05-12T07:34:19.482Z,103447.13
2019-05-12T07:36:48.720Z,103445.13
2019-05-12T07:39:17.929Z,103447.69
2019-05-12T07:41:50.786Z,103447.43
2019-05-12T07:44:18.364Z,103454.16
2019-05-12T07:46:49.524Z,103455.70
2019-05-12T07:49:22.669Z,103464.78
2019-05-12T07:51:50.139Z,103458.36
2019-05-12T07:54:19.395Z,103459.00
2019-05-12T07:56:48.579Z,103459.23
2019-05-12T07:59:17.749Z,103467.58
2019-05-12T08:01:51.909Z,103465.63
2019-05-12T08:04:17.991Z,103462.52
2019-05-12T08:06:47.196Z,103463.76
2019-05-12T08:09:16.344Z,103477.63
2019-05-12T08:11:48.379Z,103473.33
2019-05-12T08:14:25.831Z,103480.86
2019-05-12T08:16:48.629Z,103478.59
2019-05-12T08:19:23.732Z,103472.45
2019-05-12T08:21:49.330Z,103475.67
2019-05-12T08:24:18.559Z,103476.95
2019-05-12T08:26:53.046Z,103475.95
2019-05-12T08:29:21.501Z,103477.35
2019-05-12T08:31:49.751Z,103485.26
2019-05-12T08:34:18.944Z,103472.68
2019-05-12T08:36:53.095Z,103468.27
2019-05-12T08:39:22.863Z,103471.91
2019-05-12T08:41:49.983Z,103478.47
2019-05-12T08:44:24.933Z,103474.03
2019-05-12T08:46:51.880Z,103473.95
2019-05-12T08:49:23.379Z,103489.75
2019-05-12T08:51:57.765Z,103498.15
2019-05-12T08:54:23.361Z,103492.81
2019-05-12T08:56:59.350Z,103491.56
2019-05-12T08:59:27.203Z,103491.09
2019-05-12T09:01:54.907Z,103486.07
2019-05-12T09:04:24.698Z,103487.47
2019-05-12T09:06:56.377Z,103487.69
2019-05-12T09:09:25.207Z,103488.42
2019-05-12T09:11:54.520Z,103485.38
2019-05-12T09:14:24.002Z,103488.74
2019-05-12T09:17:02.033Z,103489.24
2019-05-12T09:19:27.109Z,103493.31
2019-05-12T09:21:55.367Z,103496.92
2019-05-12T09:24:27.188Z,103496.69
2019-05-12T09:26:59.150Z,103495.91
2019-05-12T09:29:26.435Z,103498.05
2019-05-12T09:31:59.361Z,103501.59
2019-05-12T09:34:26.616Z,103507.44
2019-05-12T09:36:59.642Z,103503.92
2019-05-12T09:39:26.841Z,103503.45
2019-05-12T09:41:56.028Z,103503.58
2019-05-12T09:44:26.423Z,103496.70
2019-05-12T09:46:56.162Z,103497.23
2019-05-12T09:49:31.389Z,103488.78
2019-05-12T09:51:56.275Z,103500.16
2019-05-12T09:54:33.993Z,103508.00
2019-05-12T09:56:59.607Z,103502.38
2019-05-12T09:59:27.331Z,103512.84
2019-05-12T10:01:56.498Z,103512.71
2019-05-12T10:04:25.688Z,103504.85
2019-05-12T10:06:54.879Z,103508.70
2019-05-12T10:09:24.530Z,103512.80
2019-05-12T10:12:00.295Z,103521.84
2019-05-12T10:14:24.685Z,103520.44
2019-05-12T10:16:53.981Z,103527.42
2019-05-12T10:19:23.610Z,103530.19
2019-05-12T10:21:55.290Z,103525.31
2019-05-12T10:24:23.846Z,103528.09
2019-05-12T10:26:54.115Z,103518.62
2019-05-12T10:29:24.381Z,103524.78
2019-05-12T10:31:53.779Z,103524.30
2019-05-12T10:34:23.894Z,103526.29
2019-05-12T10:36:53.978Z,103529.69
2019-05-12T10:39:24.390Z,103523.00
2019-05-12T10:41:54.587Z,103528.41
2019-05-12T10:44:24.000Z,103521.25
2019-05-12T10:46:54.856Z,103528.20
2019-05-12T10:49:24.066Z,103537.38
2019-05-12T10:51:53.966Z,103535.11
2019-05-12T10:54:24.191Z,103538.19
2019-05-12T10:56:54.654Z,103527.02
2019-05-12T10:59:32.691Z,103526.98
2019-05-12T11:01:54.908Z,103531.05
2019-05-12T11:04:35.612Z,103534.11
2019-05-12T11:06:55.000Z,103532.22
2019-05-12T11:09:29.501Z,103534.54
2019-05-12T11:11:55.141Z,103538.18
2019-05-12T11:14:26.466Z,103537.27
2019-05-12T11:16:56.977Z,103536.14
2019-05-12T11:19:26.164Z,103541.36
2019-05-12T11:21:55.459Z,103544.20
2019-05-12T11:24:24.704Z,103545.23
2019-05-12T11:26:53.932Z,103548.02
2019-05-12T11:29:23.656Z,103552.74
2019-05-12T11:31:53.864Z,103557.75
2019-05-12T11:34:23.218Z,103554.87
2019-05-12T11:36:54.485Z,103558.24
2019-05-12T11:39:23.673Z,103552.91
2019-05-12T11:41:55.340Z,103559.52
2019-05-12T11:44:23.979Z,103564.95
2019-05-12T11:46:54.747Z,103571.22
2019-05-12T11:49:26.199Z,103562.06
2019-05-12T11:51:54.973Z,103564.83
2019-05-12T11:54:25.350Z,103565.78
2019-05-12T11:56:55.083Z,103566.84
2019-05-12T11:59:24.263Z,103566.30
2019-05-12T12:01:56.040Z,103560.38
2019-05-12T12:04:26.056Z,103570.78
2019-05-12T12:06:55.280Z,103575.33
2019-05-12T12:09:24.541Z,103580.20
2019-05-12T12:11:57.026Z,103575.70
2019-05-12T12:14:24.690Z,103579.07
2019-05-12T12:16:54.447Z,103564.53
2019-05-12T12:19:26.115Z,103571.46
2019-05-12T12:21:54.678Z,103579.59
2019-05-12T12:24:29.742Z,103579.02
2019-05-12T12:26:54.893Z,103579.81
2019-05-12T12:29:24.176Z,103564.78
2019-05-12T12:31:55.091Z,103562.20
2019-05-12T12:34:29.868Z,103570.41
2019-05-12T12:36:55.211Z,103555.77
2019-05-12T12:39:24.385Z,103565.03
2019-05-12T12:41:59.679Z,103560.64
2019-05-12T12:44:24.685Z,103559.03
2019-05-12T12:46:59.858Z,103576.89
2019-05-12T12:49:24.803Z,103582.73
2019-05-12T12:51:53.990Z,103579.27
2019-05-12T12:54:23.168Z,103585.47
2019-05-12T12:56:53.917Z,103583.39
2019-05-12T12:59:24.065Z,103585.16
2019-05-12T13:01:53.309Z,103582.74
2019-05-12T13:04:24.715Z,103572.95
2019-05-12T13:06:54.365Z,103573.96
2019-05-12T13:09:24.665Z,103584.70
2019-05-12T13:11:54.061Z,103579.38
2019-05-12T13:14:28.253Z,103587.84
2019-05-12T13:16:54.770Z,103582.90
2019-05-12T13:19:25.256Z,103576.72
2019-05-12T13:21:54.460Z,103572.11
2019-05-12T13:24:23.667Z,103567.78
2019-05-12T13:26:54.020Z,103566.44
2019-05-12T13:29:28.346Z,103577.71
2019-05-12T13:31:53.878Z,103586.15
2019-05-12T13:34:23.743Z,103577.01
2019-05-12T13:36:54.523Z,103580.31
2019-05-12T13:39:24.287Z,103573.48
2019-05-12T13:41:58.545Z,103577.84
2019-05-12T13:44:24.483Z,103574.16
2019-05-12T13:46:57.504Z,103580.26
2019-05-12T13:49:24.669Z,103587.47
2019-05-12T13:51:53.915Z,103594.19
2019-05-12T13:54:26.085Z,103597.20
2019-05-12T13:56:54.234Z,103606.09
2019-05-12T13:59:25.472Z,103604.08
2019-05-12T14:01:54.500Z,103596.09
2019-05-12T14:04:27.701Z,103600.72
2019-05-12T14:06:54.655Z,103606.49
2019-05-12T14:09:23.982Z,103603.88
2019-05-12T14:11:53.819Z,103610.02
2019-05-12T14:14:23.795Z,103608.15
2019-05-12T14:16:59.096Z,103605.31
2019-05-12T14:19:23.964Z,103604.09
2019-05-12T14:21:54.233Z,103608.27
2019-05-12T14:24:23.598Z,103602.30
2019-05-12T14:26:53.466Z,103606.94
2019-05-12T14:29:26.695Z,103606.67
2019-05-12T14:32:01.735Z,103608.02
2019-05-12T14:34:24.585Z,103613.13
2019-05-12T14:37:04.992Z,103624.01
2019-05-12T14:39:24.768Z,103616.56
2019-05-12T14:41:54.678Z,103618.70
2019-05-12T14:44:24.043Z,103621.20
2019-05-12T14:46:53.832Z,103613.70
2019-05-12T14:49:26.404Z,103615.91
2019-05-12T14:51:55.224Z,103618.09
2019-05-12T14:54:24.387Z,103616.09
2019-05-12T14:56:57.687Z,103616.63
2019-05-12T14:59:24.519Z,103605.78
2019-05-12T15:01:59.250Z,103610.35
2019-05-12T15:04:29.534Z,103612.16
2019-05-12T15:06:59.880Z,103612.80
2019-05-12T15:09:26.527Z,103618.10
2019-05-12T15:11:55.768Z,103618.73
2019-05-12T15:14:32.584Z,103618.11
2019-05-12T15:16:55.914Z,103620.83
2019-05-12T15:19:29.568Z,103620.58
2019-05-12T15:21:56.079Z,103617.33
2019-05-12T15:24:25.341Z,103624.30
2019-05-12T15:26:57.469Z,103622.98
2019-05-12T15:29:25.432Z,103626.36
2019-05-12T15:31:56.830Z,103626.75
2019-05-12T15:34:25.545Z,103627.50
2019-05-12T15:36:56.237Z,103627.25
2019-05-12T15:39:25.707Z,103624.69
2019-05-12T15:41:56.524Z,103622.61
2019-05-12T15:44:31.512Z,103634.27
2019-05-12T15:46:56.703Z,103625.91
2019-05-12T15:49:26.302Z,103624.81
2019-05-12T15:51:58.642Z,103627.42
2019-05-12T15:54:26.491Z,103621.72
2019-05-12T15:56:55.833Z,103627.69
2019-05-12T15:59:25.108Z,103639.02
2019-05-12T16:02:07.570Z,103639.38
2019-05-12T16:04:25.217Z,103642.96
2019-05-12T16:06:57.686Z,103651.36
2019-05-12T16:09:25.440Z,103645.89
2019-05-12T16:11:54.662Z,103652.28
2019-05-12T16:14:24.022Z,103650.37
2019-05-12T16:16:53.619Z,103649.56
2019-05-12T16:19:23.439Z,103645.69
2019-05-12T16:21:54.182Z,103655.09
2019-05-12T16:24:23.692Z,103651.80
2019-05-12T16:26:54.284Z,103649.80
2019-05-12T16:29:23.484Z,103652.98
2019-05-12T16:31:53.701Z,103650.50
2019-05-12T16:34:22.956Z,103654.14
2019-05-12T16:36:54.787Z,103645.98
2019-05-12T16:39:23.905Z,103650.16
2019-05-12T16:41:54.414Z,103645.23
2019-05-12T16:44:26.037Z,103649.27
2019-05-12T16:46:53.502Z,103661.13
2019-05-12T16:49:25.120Z,103664.42
2019-05-12T16:51:54.213Z,103670.06
2019-05-12T16:54:24.188Z,103675.04
2019-05-12T16:56:53.752Z,103672.88
2019-05-12T16:59:24.609Z,103673.34
2019-05-12T17:01:54.272Z,103676.27
2019-05-12T17:04:23.892Z,103675.36
2019-05-12T17:06:52.473Z,103680.84
2019-05-12T17:09:21.105Z,103681.33
2019-05-12T17:11:52.805Z,103686.83
2019-05-12T17:14:23.508Z,103694.22
2019-05-12T17:16:54.201Z,103693.87
2019-05-12T17:19:23.617Z,103694.92
2019-05-12T17:21:57.576Z,103699.89
2019-05-12T17:24:23.946Z,103699.52
2019-05-12T17:26:52.628Z,103705.40
2019-05-12T17:29:21.193Z,103713.70
2019-05-12T17:31:50.334Z,103711.33
2019-05-12T17:34:19.117Z,103714.60
2019-05-12T17:36:50.138Z,103719.75
2019-05-12T17:39:17.947Z,103717.64
2019-05-12T17:41:46.519Z,103722.45
2019-05-12T17:44:15.652Z,103728.39
2019-05-12T17:46:44.330Z,103734.62
2019-05-12T17:49:25.420Z,103734.03
2019-05-12T17:51:49.504Z,103735.64
2019-05-12T17:54:21.530Z,103741.03
2019-05-12T17:56:48.349Z,103744.64
2019-05-12T17:59:23.499Z,103743.01
2019-05-12T18:01:47.244Z,103743.41
2019-05-12T18:04:20.323Z,103747.50
2019-05-12T18:06:46.858Z,103752.02
2019-05-12T18:09:19.932Z,103747.41
2019-05-12T18:11:46.093Z,103759.40
2019-05-12T18:14:16.026Z,103759.02
2019-05-12T18:16:44.594Z,103764.30
2019-05-12T18:19:15.356Z,103761.73
2019-05-12T18:21:45.083Z,103768.55
2019-05-12T18:24:14.259Z,103767.64
2019-05-12T18:26:47.157Z,103774.58
2019-05-12T18:29:14.687Z,103774.14
2019-05-12T18:31:43.737Z,103773.48
2019-05-12T18:34:13.934Z,103775.94
2019-05-12T18:36:42.517Z,103776.89
2019-05-12T18:39:12.504Z,103787.62
2019-05-12T18:41:43.741Z,103788.09
2019-05-12T18:44:18.110Z,103793.89
2019-05-12T18:46:45.170Z,103793.80
2019-05-12T18:49:15.622Z,103799.73
2019-05-12T18:51:43.557Z,103800.98
2019-05-12T18:54:14.749Z,103810.09
2019-05-12T18:56:44.035Z,103810.50
2019-05-12T18:59:16.088Z,103809.98
2019-05-12T19:01:43.650Z,103813.01
2019-05-12T19:04:14.298Z,103809.69
2019-05-12T19:06:43.961Z,103817.52
2019-05-12T19:09:13.672Z,103824.84
2019-05-12T19:11:46.509Z,103822.83
2019-05-12T19:14:13.535Z,103827.99
2019-05-12T19:16:43.612Z,103832.41
2019-05-12T19:19:16.789Z,103843.69
2019-05-12T19:21:43.729Z,103843.77
2019-05-12T19:24:17.480Z,103848.05
2019-05-12T19:26:44.059Z,103852.69
2019-05-12T19:29:14.172Z,103848.11
2019-05-12T19:31:51.952Z,103856.27
2019-05-12T19:34:20.052Z,103861.79
2019-05-12T19:36:47.701Z,103866.53
2019-05-12T19:39:13.646Z,103871.58
2019-05-12T19:41:43.693Z,103873.84
2019-05-12T19:44:13.482Z,103868.66
2019-05-12T19:46:46.038Z,103870.04
2019-05-12T19:49:12.446Z,103872.41
2019-05-12T19:51:40.985Z,103867.77
2019-05-12T19:54:09.643Z,103872.01
2019-05-12T19:56:39.591Z,103880.17
2019-05-12T19:59:08.336Z,103880.84
2019-05-12T20:01:37.026Z,103885.08
2019-05-12T20:04:05.582Z,103884.61
2019-05-12T20:06:34.794Z,103889.28
2019-05-12T20:09:08.292Z,103888.30
2019-05-12T20:11:35.461Z,103897.05
2019-05-12T20:14:04.306Z,103898.29
2019-05-12T20:16:34.633Z,103901.53
2019-05-12T20:19:04.274Z,103895.48
2019-05-12T20:21:33.971Z,103898.01
2019-05-12T20:24:03.752Z,103905.58
2019-05-12T20:26:33.304Z,103906.14
2019-05-12T20:29:04.561Z,103901.64
2019-05-12T20:31:35.505Z,103911.73
2019-05-12T20:34:09.763Z,103913.38
2019-05-12T20:36:33.569Z,103907.58
2019-05-12T20:39:09.448Z,103916.42
2019-05-12T20:41:33.633Z,103909.11
2019-05-12T20:44:02.278Z,103914.73
2019-05-12T20:46:30.870Z,103916.70
2019-05-12T20:49:01.275Z,103919.36
2019-05-12T20:51:29.569Z,103921.31
2019-05-12T20:53:58.257Z,103917.94
2019-05-12T20:56:26.775Z,103920.31
2019-05-12T20:58:55.383Z,103926.84
2019-05-12T21:01:28.214Z,103928.78
2019-05-12T21:03:54.187Z,103933.68
2019-05-12T21:06:23.686Z,103930.02
2019-05-12T21:08:56.299Z,103933.28
2019-05-12T21:11:24.554Z,103930.55
2019-05-12T21:13:54.532Z,103932.22
2019-05-12T21:16:31.236Z,103939.27
2019-05-12T21:19:05.651Z,103942.84
2019-05-12T21:21:27.261Z,103943.49
2019-05-12T21:23:59.044Z,103935.89
2019-05-12T21:26:28.495Z,103941.63
2019-05-12T21:28:54.416Z,103940.13
2019-05-12T21:31:28.966Z,103935.39
2019-05-12T21:33:53.490Z,103940.08
2019-05-12T21:36:24.539Z,103938.89
2019-05-12T21:38:54.187Z,103939.77
2019-05-12T21:41:24.435Z,103940.48
2019-05-12T21:43:54.444Z,103939.75
2019-05-12T21:46:24.377Z,103945.27
2019-05-12T21:48:53.152Z,103949.31
2019-05-12T21:51:23.478Z,103953.91
2019-05-12T21:53:56.125Z,103945.42
2019-05-12T21:56:24.333Z,103946.70
2019-05-12T21:58:56.636Z,103948.80
2019-05-12T22:01:23.930Z,103956.14
2019-05-12T22:03:58.071Z,103954.65
2019-05-12T22:06:24.957Z,103956.97
2019-05-12T22:09:01.144Z,103958.08
2019-05-12T22:11:24.873Z,103958.81
2019-05-12T22:13:59.524Z,103961.91
2019-05-12T22:16:23.696Z,103958.66
2019-05-12T22:18:55.887Z,103961.04
2019-05-12T22:21:23.844Z,103964.16
2019-05-12T22:23:54.216Z,103964.47
2019-05-12T22:26:22.677Z,103962.89
2019-05-12T22:28:53.207Z,103967.48
2019-05-12T22:31:21.385Z,103974.64
2019-05-12T22:33:53.629Z,103977.16
2019-05-12T22:36:25.645Z,103976.93
2019-05-12T22:38:54.327Z,103979.35
2019-05-12T22:41:20.561Z,103979.19
2019-05-12T22:43:49.046Z,103980.16
2019-05-12T22:46:24.976Z,103977.27
2019-05-12T22:48:47.852Z,103984.11
2019-05-12T22:51:23.484Z,103988.54
2019-05-12T22:53:46.720Z,103986.70
2019-05-12T22:56:18.044Z,103984.28
2019-05-12T22:58:45.560Z,103984.56
2019-05-12T23:01:14.550Z,103991.15
2019-05-12T23:03:51.249Z,103995.55
2019-05-12T23:06:23.586Z,103994.38
2019-05-12T23:08:45.061Z,103995.23
2019-05-12T23:11:14.460Z,103997.95
2019-05-12T23:13:43.101Z,103995.45
2019-05-12T23:16:14.020Z,103997.87
2019-05-12T23:18:44.295Z,104000.83
2019-05-12T23:21:13.272Z,104004.38
2019-05-12T23:23:42.250Z,104007.80
2019-05-12T23:26:10.791Z,104009.42
2019-05-12T23:28:40.633Z,104011.61
2019-05-12T23:31:09.621Z,104012.54
2019-05-12T23:33:38.162Z,104017.75
2019-05-12T23:36:09.654Z,104009.42
2019-05-12T23:38:36.983Z,104008.41
2019-05-12T23:41:05.552Z,104015.81
2019-05-12T23:43:34.181Z,104018.67
2019-05-12T23:46:02.779Z,104017.11
2019-05-12T23:48:33.382Z,104016.64
2019-05-12T23:51:03.635Z,104020.31
2019-05-12T23:53:33.836Z,104018.00
2019-05-12T23:56:03.717Z,104021.58
2019-05-12T23:58:32.102Z,104029.27
